sensor_id;sensor_type;location;lat;lon;timestamp;pressure;altitude;pressure_sealevel;temperature
61977;BMP280;45905;50.570;10.428;2023-05-07T00:00:38;97973.72;;;14.96
61977;BMP280;45905;50.570;10.428;2023-05-07T00:03:05;97971.16;;;14.96
61977;BMP280;45905;50.570;10.428;2023-05-07T00:05:34;97978.81;;;14.96
61977;BMP280;45905;50.570;10.428;2023-05-07T00:08:01;97977.38;;;14.93
61977;BMP280;45905;50.570;10.428;2023-05-07T00:10:29;97979.78;;;14.95
61977;BMP280;45905;50.570;10.428;2023-05-07T00:12:57;97976.59;;;14.93
61977;BMP280;45905;50.570;10.428;2023-05-07T00:15:24;97982.66;;;14.92
61977;BMP280;45905;50.570;10.428;2023-05-07T00:17:52;97979.47;;;14.90
61977;BMP280;45905;50.570;10.428;2023-05-07T00:20:20;97980.44;;;14.89
61977;BMP280;45905;50.570;10.428;2023-05-07T00:22:47;97987.50;;;14.87
61977;BMP280;45905;50.570;10.428;2023-05-07T00:25:15;97987.50;;;14.87
61977;BMP280;45905;50.570;10.428;2023-05-07T00:27:43;97980.81;;;14.86
61977;BMP280;45905;50.570;10.428;2023-05-07T00:30:11;97984.34;;;14.85
61977;BMP280;45905;50.570;10.428;2023-05-07T00:32:39;97984.34;;;14.85
61977;BMP280;45905;50.570;10.428;2023-05-07T00:35:07;97993.75;;;14.85
61977;BMP280;45905;50.570;10.428;2023-05-07T00:37:35;97993.94;;;14.83
61977;BMP280;45905;50.570;10.428;2023-05-07T00:40:03;97991.53;;;14.82
61977;BMP280;45905;50.570;10.428;2023-05-07T00:42:34;97984.88;;;14.81
61977;BMP280;45905;50.570;10.428;2023-05-07T00:45:02;97987.00;;;14.77
61977;BMP280;45905;50.570;10.428;2023-05-07T00:47:30;97981.28;;;14.75
61977;BMP280;45905;50.570;10.428;2023-05-07T00:49:58;97975.38;;;14.75
61977;BMP280;45905;50.570;10.428;2023-05-07T00:52:26;97977.16;;;14.74
61977;BMP280;45905;50.570;10.428;2023-05-07T00:54:54;97972.03;;;14.74
61977;BMP280;45905;50.570;10.428;2023-05-07T00:57:22;97974.75;;;14.73
61977;BMP280;45905;50.570;10.428;2023-05-07T00:59:51;97972.41;;;14.71
61977;BMP280;45905;50.570;10.428;2023-05-07T01:02:18;97963.94;;;14.71
61977;BMP280;45905;50.570;10.428;2023-05-07T01:04:46;97969.25;;;14.69
61977;BMP280;45905;50.570;10.428;2023-05-07T01:07:14;97982.19;;;14.68
61977;BMP280;45905;50.570;10.428;2023-05-07T01:09:42;97979.44;;;14.69
61977;BMP280;45905;50.570;10.428;2023-05-07T01:12:10;97969.44;;;14.68
61977;BMP280;45905;50.570;10.428;2023-05-07T01:14:37;97969.59;;;14.67
61977;BMP280;45905;50.570;10.428;2023-05-07T01:17:04;97957.81;;;14.66
61977;BMP280;45905;50.570;10.428;2023-05-07T01:19:32;97962.91;;;14.66
61977;BMP280;45905;50.570;10.428;2023-05-07T01:22:08;97959.41;;;14.67
61977;BMP280;45905;50.570;10.428;2023-05-07T01:24:45;97954.75;;;14.70
61977;BMP280;45905;50.570;10.428;2023-05-07T01:27:13;97962.03;;;14.73
61977;BMP280;45905;50.570;10.428;2023-05-07T01:29:41;97962.19;;;14.71
61977;BMP280;45905;50.570;10.428;2023-05-07T01:32:09;97961.78;;;14.68
61977;BMP280;45905;50.570;10.428;2023-05-07T01:34:37;97962.56;;;14.69
61977;BMP280;45905;50.570;10.428;2023-05-07T01:37:05;97961.41;;;14.71
61977;BMP280;45905;50.570;10.428;2023-05-07T01:39:32;97968.69;;;14.74
61977;BMP280;45905;50.570;10.428;2023-05-07T01:42:01;97966.94;;;14.74
61977;BMP280;45905;50.570;10.428;2023-05-07T01:44:29;97956.91;;;14.73
61977;BMP280;45905;50.570;10.428;2023-05-07T01:46:57;97962.97;;;14.72
61977;BMP280;45905;50.570;10.428;2023-05-07T01:49:25;97961.84;;;14.74
61977;BMP280;45905;50.570;10.428;2023-05-07T01:51:53;97967.75;;;14.75
61977;BMP280;45905;50.570;10.428;2023-05-07T01:54:26;97963.78;;;14.72
61977;BMP280;45905;50.570;10.428;2023-05-07T01:56:56;97960.63;;;14.70
61977;BMP280;45905;50.570;10.428;2023-05-07T01:59:24;97965.75;;;14.70
61977;BMP280;45905;50.570;10.428;2023-05-07T02:01:51;97964.56;;;14.73
61977;BMP280;45905;50.570;10.428;2023-05-07T02:04:19;97965.38;;;14.73
61977;BMP280;45905;50.570;10.428;2023-05-07T02:06:46;97964.75;;;14.71
61977;BMP280;45905;50.570;10.428;2023-05-07T02:09:15;97953.16;;;14.69
61977;BMP280;45905;50.570;10.428;2023-05-07T02:11:46;97966.09;;;14.68
61977;BMP280;45905;50.570;10.428;2023-05-07T02:14:13;97960.19;;;14.67
61977;BMP280;45905;50.570;10.428;2023-05-07T02:16:41;97956.22;;;14.65
61977;BMP280;45905;50.570;10.428;2023-05-07T02:19:11;97957.03;;;14.65
61977;BMP280;45905;50.570;10.428;2023-05-07T02:21:38;97958.78;;;14.65
61977;BMP280;45905;50.570;10.428;2023-05-07T02:24:05;97961.34;;;14.65
61977;BMP280;45905;50.570;10.428;2023-05-07T02:26:32;97973.47;;;14.63
61977;BMP280;45905;50.570;10.428;2023-05-07T02:29:00;97963.25;;;14.63
61977;BMP280;45905;50.570;10.428;2023-05-07T02:31:27;97971.91;;;14.62
61977;BMP280;45905;50.570;10.428;2023-05-07T02:33:55;97963.47;;;14.61
61977;BMP280;45905;50.570;10.428;2023-05-07T02:36:22;97974.34;;;14.55
61977;BMP280;45905;50.570;10.428;2023-05-07T02:38:54;97975.53;;;14.53
61977;BMP280;45905;50.570;10.428;2023-05-07T02:41:21;97971.38;;;14.52
61977;BMP280;45905;50.570;10.428;2023-05-07T02:43:48;97966.28;;;14.52
61977;BMP280;45905;50.570;10.428;2023-05-07T02:46:16;97966.28;;;14.52
61977;BMP280;45905;50.570;10.428;2023-05-07T02:48:47;97959.59;;;14.51
61977;BMP280;45905;50.570;10.428;2023-05-07T02:51:19;97947.22;;;14.48
61977;BMP280;45905;50.570;10.428;2023-05-07T02:53:46;97943.06;;;14.47
61977;BMP280;45905;50.570;10.428;2023-05-07T02:56:13;97948.78;;;14.49
61977;BMP280;45905;50.570;10.428;2023-05-07T02:58:41;97944.66;;;14.48
61977;BMP280;45905;50.570;10.428;2023-05-07T03:01:12;97948.16;;;14.47
61977;BMP280;45905;50.570;10.428;2023-05-07T03:04:02;97946.41;;;14.48
61977;BMP280;45905;50.570;10.428;2023-05-07T03:06:29;97944.66;;;14.48
61977;BMP280;45905;50.570;10.428;2023-05-07T03:08:57;97945.63;;;14.47
61977;BMP280;45905;50.570;10.428;2023-05-07T03:11:24;97954.22;;;14.46
61977;BMP280;45905;50.570;10.428;2023-05-07T03:13:52;97958.91;;;14.43
61977;BMP280;45905;50.570;10.428;2023-05-07T03:16:20;97972.97;;;14.39
61977;BMP280;45905;50.570;10.428;2023-05-07T03:18:47;97966.44;;;14.36
61977;BMP280;45905;50.570;10.428;2023-05-07T03:21:15;97965.50;;;14.37
61977;BMP280;45905;50.570;10.428;2023-05-07T03:23:42;97965.50;;;14.37
61977;BMP280;45905;50.570;10.428;2023-05-07T03:26:09;97966.66;;;14.35
61977;BMP280;45905;50.570;10.428;2023-05-07T03:28:37;97964.09;;;14.35
61977;BMP280;45905;50.570;10.428;2023-05-07T03:31:08;97964.44;;;14.32
61977;BMP280;45905;50.570;10.428;2023-05-07T03:33:47;97973.84;;;14.31
61977;BMP280;45905;50.570;10.428;2023-05-07T03:36:15;97975.78;;;14.30
61977;BMP280;45905;50.570;10.428;2023-05-07T03:38:43;97979.66;;;14.26
61977;BMP280;45905;50.570;10.428;2023-05-07T03:41:11;97981.59;;;14.24
61977;BMP280;45905;50.570;10.428;2023-05-07T03:43:38;97982.53;;;14.23
61977;BMP280;45905;50.570;10.428;2023-05-07T03:46:09;97982.72;;;14.21
61977;BMP280;45905;50.570;10.428;2023-05-07T03:48:36;97984.66;;;14.19
61977;BMP280;45905;50.570;10.428;2023-05-07T03:51:04;97989.31;;;14.16
61977;BMP280;45905;50.570;10.428;2023-05-07T03:53:33;97992.81;;;14.15
61977;BMP280;45905;50.570;10.428;2023-05-07T03:56:00;97989.47;;;14.14
61977;BMP280;45905;50.570;10.428;2023-05-07T03:58:30;97989.66;;;14.13
61977;BMP280;45905;50.570;10.428;2023-05-07T04:01:02;97988.06;;;14.12
61977;BMP280;45905;50.570;10.428;2023-05-07T04:03:29;97990.00;;;14.10
61977;BMP280;45905;50.570;10.428;2023-05-07T04:05:58;97989.19;;;14.10
61977;BMP280;45905;50.570;10.428;2023-05-07T04:08:26;97998.63;;;14.09
61977;BMP280;45905;50.570;10.428;2023-05-07T04:10:58;97989.41;;;14.08
61977;BMP280;45905;50.570;10.428;2023-05-07T04:13:30;97987.81;;;14.07
61977;BMP280;45905;50.570;10.428;2023-05-07T04:16:01;97993.88;;;14.06
61977;BMP280;45905;50.570;10.428;2023-05-07T04:18:29;97984.66;;;14.05
61977;BMP280;45905;50.570;10.428;2023-05-07T04:20:56;97997.38;;;14.05
61977;BMP280;45905;50.570;10.428;2023-05-07T04:23:23;97984.03;;;14.03
61977;BMP280;45905;50.570;10.428;2023-05-07T04:25:52;97991.81;;;14.02
61977;BMP280;45905;50.570;10.428;2023-05-07T04:28:28;97979.88;;;14.02
61977;BMP280;45905;50.570;10.428;2023-05-07T04:30:55;97990.06;;;14.02
61977;BMP280;45905;50.570;10.428;2023-05-07T04:33:22;97996.50;;;13.98
61977;BMP280;45905;50.570;10.428;2023-05-07T04:35:50;98000.78;;;13.98
61977;BMP280;45905;50.570;10.428;2023-05-07T04:38:17;98001.59;;;13.98
61977;BMP280;45905;50.570;10.428;2023-05-07T04:40:47;98005.09;;;13.97
61977;BMP280;45905;50.570;10.428;2023-05-07T04:43:19;98005.09;;;13.97
61977;BMP280;45905;50.570;10.428;2023-05-07T04:45:52;98013.38;;;13.99
61977;BMP280;45905;50.570;10.428;2023-05-07T04:48:23;98011.78;;;13.98
61977;BMP280;45905;50.570;10.428;2023-05-07T04:50:51;98013.97;;;14.01
61977;BMP280;45905;50.570;10.428;2023-05-07T04:53:20;98013.00;;;14.02
61977;BMP280;45905;50.570;10.428;2023-05-07T04:55:55;98012.66;;;14.05
61977;BMP280;45905;50.570;10.428;2023-05-07T04:58:24;98020.94;;;14.07
61977;BMP280;45905;50.570;10.428;2023-05-07T05:00:52;98011.38;;;14.09
61977;BMP280;45905;50.570;10.428;2023-05-07T05:03:19;98014.50;;;14.11
61977;BMP280;45905;50.570;10.428;2023-05-07T05:05:49;98011.00;;;14.12
61977;BMP280;45905;50.570;10.428;2023-05-07T05:08:17;98013.38;;;14.13
61977;BMP280;45905;50.570;10.428;2023-05-07T05:10:45;98011.63;;;14.14
61977;BMP280;45905;50.570;10.428;2023-05-07T05:13:12;98002.06;;;14.16
61977;BMP280;45905;50.570;10.428;2023-05-07T05:15:41;98007.56;;;14.19
61977;BMP280;45905;50.570;10.428;2023-05-07T05:18:08;98017.25;;;14.24
61977;BMP280;45905;50.570;10.428;2023-05-07T05:20:35;98014.38;;;14.27
61977;BMP280;45905;50.570;10.428;2023-05-07T05:23:03;98013.03;;;14.31
61977;BMP280;45905;50.570;10.428;2023-05-07T05:25:30;98015.25;;;14.33
61977;BMP280;45905;50.570;10.428;2023-05-07T05:27:58;98015.88;;;14.35
61977;BMP280;45905;50.570;10.428;2023-05-07T05:30:25;98011.97;;;14.39
61977;BMP280;45905;50.570;10.428;2023-05-07T05:32:53;98019.28;;;14.42
61977;BMP280;45905;50.570;10.428;2023-05-07T05:35:20;98025.59;;;14.46
61977;BMP280;45905;50.570;10.428;2023-05-07T05:37:48;98036.06;;;14.51
61977;BMP280;45905;50.570;10.428;2023-05-07T05:40:16;98035.13;;;14.52
61977;BMP280;45905;50.570;10.428;2023-05-07T05:42:43;98032.19;;;14.55
61977;BMP280;45905;50.570;10.428;2023-05-07T05:45:11;98031.84;;;14.58
61977;BMP280;45905;50.570;10.428;2023-05-07T05:47:39;98030.72;;;14.60
61977;BMP280;45905;50.570;10.428;2023-05-07T05:50:07;98031.13;;;14.64
61977;BMP280;45905;50.570;10.428;2023-05-07T05:52:35;98036.84;;;14.66
61977;BMP280;45905;50.570;10.428;2023-05-07T05:55:02;98034.75;;;14.69
61977;BMP280;45905;50.570;10.428;2023-05-07T05:57:30;98038.50;;;14.73
61977;BMP280;45905;50.570;10.428;2023-05-07T05:59:58;98036.41;;;14.76
61977;BMP280;45905;50.570;10.428;2023-05-07T06:02:25;98042.72;;;14.80
61977;BMP280;45905;50.570;10.428;2023-05-07T06:04:52;98050.66;;;14.85
61977;BMP280;45905;50.570;10.428;2023-05-07T06:07:22;98051.84;;;14.89
61977;BMP280;45905;50.570;10.428;2023-05-07T06:09:49;98043.88;;;14.92
61977;BMP280;45905;50.570;10.428;2023-05-07T06:12:17;98044.16;;;14.97
61977;BMP280;45905;50.570;10.428;2023-05-07T06:14:44;98042.66;;;15.02
61977;BMP280;45905;50.570;10.428;2023-05-07T06:17:12;98049.75;;;15.07
61977;BMP280;45905;50.570;10.428;2023-05-07T06:19:39;98044.91;;;15.11
61977;BMP280;45905;50.570;10.428;2023-05-07T06:22:07;98042.44;;;15.18
61977;BMP280;45905;50.570;10.428;2023-05-07T06:24:35;98053.66;;;15.23
61977;BMP280;45905;50.570;10.428;2023-05-07T06:27:04;98051.38;;;15.28
61977;BMP280;45905;50.570;10.428;2023-05-07T06:29:32;98053.22;;;15.34
61977;BMP280;45905;50.570;10.428;2023-05-07T06:32:11;98049.94;;;15.40
61977;BMP280;45905;50.570;10.428;2023-05-07T06:34:40;98055.28;;;15.45
61977;BMP280;45905;50.570;10.428;2023-05-07T06:37:08;98059.66;;;15.50
61977;BMP280;45905;50.570;10.428;2023-05-07T06:39:49;98062.47;;;15.55
61977;BMP280;45905;50.570;10.428;2023-05-07T06:42:16;98069.97;;;15.57
61977;BMP280;45905;50.570;10.428;2023-05-07T06:44:46;98072.13;;;15.60
61977;BMP280;45905;50.570;10.428;2023-05-07T06:47:16;98064.91;;;15.63
61977;BMP280;45905;50.570;10.428;2023-05-07T06:49:46;98068.66;;;15.67
61977;BMP280;45905;50.570;10.428;2023-05-07T06:52:16;98068.13;;;15.71
61977;BMP280;45905;50.570;10.428;2023-05-07T06:54:45;98067.97;;;15.73
61977;BMP280;45905;50.570;10.428;2023-05-07T06:57:15;98058.59;;;15.80
61977;BMP280;45905;50.570;10.428;2023-05-07T06:59:42;98058.22;;;15.83
61977;BMP280;45905;50.570;10.428;2023-05-07T07:02:09;98055.28;;;15.85
61977;BMP280;45905;50.570;10.428;2023-05-07T07:04:37;98048.41;;;15.86
61977;BMP280;45905;50.570;10.428;2023-05-07T07:07:08;98048.84;;;15.89
61977;BMP280;45905;50.570;10.428;2023-05-07T07:09:36;98051.03;;;15.92
61977;BMP280;45905;50.570;10.428;2023-05-07T07:12:04;98058.13;;;15.97
61977;BMP280;45905;50.570;10.428;2023-05-07T07:14:33;98062.13;;;15.99
61977;BMP280;45905;50.570;10.428;2023-05-07T07:17:00;98066.09;;;16.02
61977;BMP280;45905;50.570;10.428;2023-05-07T07:19:27;98055.47;;;16.04
61977;BMP280;45905;50.570;10.428;2023-05-07T07:21:56;98058.47;;;16.08
61977;BMP280;45905;50.570;10.428;2023-05-07T07:24:23;98057.09;;;16.12
61977;BMP280;45905;50.570;10.428;2023-05-07T07:26:55;98063.44;;;16.16
61977;BMP280;45905;50.570;10.428;2023-05-07T07:29:23;98062.09;;;16.20
61977;BMP280;45905;50.570;10.428;2023-05-07T07:31:52;98063.31;;;16.23
61977;BMP280;45905;50.570;10.428;2023-05-07T07:34:20;98056.84;;;16.27
61977;BMP280;45905;50.570;10.428;2023-05-07T07:36:48;98059.63;;;16.32
61977;BMP280;45905;50.570;10.428;2023-05-07T07:39:17;98055.53;;;16.38
61977;BMP280;45905;50.570;10.428;2023-05-07T07:41:46;98053.03;;;16.44
61977;BMP280;45905;50.570;10.428;2023-05-07T07:44:15;98050.69;;;16.49
61977;BMP280;45905;50.570;10.428;2023-05-07T07:46:47;98049.34;;;16.53
61977;BMP280;45905;50.570;10.428;2023-05-07T07:49:15;98040.13;;;16.58
61977;BMP280;45905;50.570;10.428;2023-05-07T07:51:43;98049.81;;;16.62
61977;BMP280;45905;50.570;10.428;2023-05-07T07:54:11;98053.97;;;16.70
61977;BMP280;45905;50.570;10.428;2023-05-07T07:56:40;98059.13;;;16.76
61977;BMP280;45905;50.570;10.428;2023-05-07T07:59:08;98052.84;;;16.85
61977;BMP280;45905;50.570;10.428;2023-05-07T08:01:38;98049.97;;;16.94
61977;BMP280;45905;50.570;10.428;2023-05-07T08:04:06;98050.59;;;17.02
61977;BMP280;45905;50.570;10.428;2023-05-07T08:06:38;98051.81;;;17.06
61977;BMP280;45905;50.570;10.428;2023-05-07T08:09:05;98053.00;;;17.10
61977;BMP280;45905;50.570;10.428;2023-05-07T08:11:33;98049.09;;;17.14
61977;BMP280;45905;50.570;10.428;2023-05-07T08:14:00;98049.47;;;17.18
61977;BMP280;45905;50.570;10.428;2023-05-07T08:16:29;98056.59;;;17.22
61977;BMP280;45905;50.570;10.428;2023-05-07T08:18:58;98051.69;;;17.27
61977;BMP280;45905;50.570;10.428;2023-05-07T08:21:25;98049.34;;;17.32
61977;BMP280;45905;50.570;10.428;2023-05-07T08:23:53;98052.69;;;17.38
61977;BMP280;45905;50.570;10.428;2023-05-07T08:26:20;98051.91;;;17.44
61977;BMP280;45905;50.570;10.428;2023-05-07T08:28:48;98057.84;;;17.51
61977;BMP280;45905;50.570;10.428;2023-05-07T08:31:15;98050.00;;;17.59
61977;BMP280;45905;50.570;10.428;2023-05-07T08:33:44;98048.03;;;17.67
61977;BMP280;45905;50.570;10.428;2023-05-07T08:36:11;98049.63;;;17.75
61977;BMP280;45905;50.570;10.428;2023-05-07T08:38:39;98050.03;;;17.84
61977;BMP280;45905;50.570;10.428;2023-05-07T08:41:12;98052.63;;;17.91
61977;BMP280;45905;50.570;10.428;2023-05-07T08:43:47;98061.69;;;17.99
61977;BMP280;45905;50.570;10.428;2023-05-07T08:46:21;98059.13;;;18.06
61977;BMP280;45905;50.570;10.428;2023-05-07T08:48:53;98056.16;;;18.15
61977;BMP280;45905;50.570;10.428;2023-05-07T08:51:21;98061.28;;;18.21
61977;BMP280;45905;50.570;10.428;2023-05-07T08:53:49;98061.13;;;18.29
61977;BMP280;45905;50.570;10.428;2023-05-07T08:56:28;98063.47;;;18.37
61977;BMP280;45905;50.570;10.428;2023-05-07T08:58:55;98054.34;;;18.47
61977;BMP280;45905;50.570;10.428;2023-05-07T09:01:27;98051.38;;;18.56
61977;BMP280;45905;50.570;10.428;2023-05-07T09:03:55;98052.38;;;18.62
61977;BMP280;45905;50.570;10.428;2023-05-07T09:06:23;98056.50;;;18.69
61977;BMP280;45905;50.570;10.428;2023-05-07T09:08:55;98057.88;;;18.78
61977;BMP280;45905;50.570;10.428;2023-05-07T09:11:27;98058.66;;;18.85
61977;BMP280;45905;50.570;10.428;2023-05-07T09:13:58;98054.28;;;18.98
61977;BMP280;45905;50.570;10.428;2023-05-07T09:16:31;98056.81;;;19.04
61977;BMP280;45905;50.570;10.428;2023-05-07T09:19:00;98054.19;;;19.10
61977;BMP280;45905;50.570;10.428;2023-05-07T09:21:28;98056.34;;;19.20
61977;BMP280;45905;50.570;10.428;2023-05-07T09:23:58;98046.81;;;19.27
61977;BMP280;45905;50.570;10.428;2023-05-07T09:26:32;98050.16;;;19.33
61977;BMP280;45905;50.570;10.428;2023-05-07T09:29:03;98057.03;;;19.39
61977;BMP280;45905;50.570;10.428;2023-05-07T09:31:30;98045.38;;;19.43
61977;BMP280;45905;50.570;10.428;2023-05-07T09:33:57;98050.03;;;19.52
61977;BMP280;45905;50.570;10.428;2023-05-07T09:36:28;98051.25;;;19.56
61977;BMP280;45905;50.570;10.428;2023-05-07T09:38:59;98042.50;;;19.64
61977;BMP280;45905;50.570;10.428;2023-05-07T09:41:30;98040.09;;;19.68
61977;BMP280;45905;50.570;10.428;2023-05-07T09:44:14;98051.13;;;19.75
61977;BMP280;45905;50.570;10.428;2023-05-07T09:46:52;98045.56;;;19.78
61977;BMP280;45905;50.570;10.428;2023-05-07T09:49:29;98044.31;;;19.87
61977;BMP280;45905;50.570;10.428;2023-05-07T09:52:05;98060.03;;;19.97
61977;BMP280;45905;50.570;10.428;2023-05-07T09:54:45;98049.72;;;20.03
61977;BMP280;45905;50.570;10.428;2023-05-07T09:57:15;98046.38;;;20.03
61977;BMP280;45905;50.570;10.428;2023-05-07T09:59:46;98049.75;;;19.97
61977;BMP280;45905;50.570;10.428;2023-05-07T10:02:19;98039.22;;;20.05
61977;BMP280;45905;50.570;10.428;2023-05-07T10:04:51;98043.69;;;20.15
61977;BMP280;45905;50.570;10.428;2023-05-07T10:07:24;98049.53;;;20.22
61977;BMP280;45905;50.570;10.428;2023-05-07T10:09:55;98042.00;;;20.27
61977;BMP280;45905;50.570;10.428;2023-05-07T10:12:31;98032.44;;;20.34
61977;BMP280;45905;50.570;10.428;2023-05-07T10:15:10;98039.69;;;20.43
61977;BMP280;45905;50.570;10.428;2023-05-07T10:17:41;98042.84;;;20.45
61977;BMP280;45905;50.570;10.428;2023-05-07T10:20:10;98043.38;;;20.53
61977;BMP280;45905;50.570;10.428;2023-05-07T10:22:46;98041.50;;;20.60
61977;BMP280;45905;50.570;10.428;2023-05-07T10:25:25;98038.84;;;20.66
61977;BMP280;45905;50.570;10.428;2023-05-07T10:27:57;98028.13;;;20.69
61977;BMP280;45905;50.570;10.428;2023-05-07T10:30:58;98025.72;;;20.74
61977;BMP280;45905;50.570;10.428;2023-05-07T10:33:36;98023.78;;;20.70
61977;BMP280;45905;50.570;10.428;2023-05-07T10:36:06;98026.94;;;20.72
61977;BMP280;45905;50.570;10.428;2023-05-07T10:38:35;98028.63;;;20.78
61977;BMP280;45905;50.570;10.428;2023-05-07T10:41:02;98030.34;;;20.83
61977;BMP280;45905;50.570;10.428;2023-05-07T10:43:44;98019.53;;;20.93
61977;BMP280;45905;50.570;10.428;2023-05-07T10:46:21;98016.34;;;20.97
61977;BMP280;45905;50.570;10.428;2023-05-07T10:51:38;98026.75;;;21.02
61977;BMP280;45905;50.570;10.428;2023-05-07T11:03:05;98013.19;;;20.95
61977;BMP280;45905;50.570;10.428;2023-05-07T11:05:42;98017.91;;;20.98
61977;BMP280;45905;50.570;10.428;2023-05-07T11:08:22;98014.03;;;21.07
61977;BMP280;45905;50.570;10.428;2023-05-07T11:11:03;98008.81;;;21.13
61977;BMP280;45905;50.570;10.428;2023-05-07T11:13:49;98011.31;;;21.20
61977;BMP280;45905;50.570;10.428;2023-05-07T11:16:43;98008.09;;;21.24
61977;BMP280;45905;50.570;10.428;2023-05-07T11:19:48;98008.88;;;21.24
61977;BMP280;45905;50.570;10.428;2023-05-07T11:22:39;98007.91;;;21.37
61977;BMP280;45905;50.570;10.428;2023-05-07T11:25:28;98005.78;;;21.45
61977;BMP280;45905;50.570;10.428;2023-05-07T11:28:07;98001.91;;;21.54
61977;BMP280;45905;50.570;10.428;2023-05-07T11:30:43;98005.75;;;21.62
61977;BMP280;45905;50.570;10.428;2023-05-07T11:33:17;98001.75;;;21.78
61977;BMP280;45905;50.570;10.428;2023-05-07T11:35:47;98000.25;;;21.88
61977;BMP280;45905;50.570;10.428;2023-05-07T11:38:18;98005.06;;;21.96
61977;BMP280;45905;50.570;10.428;2023-05-07T11:40:55;98012.00;;;22.06
61977;BMP280;45905;50.570;10.428;2023-05-07T11:43:22;98005.06;;;22.18
61977;BMP280;45905;50.570;10.428;2023-05-07T11:45:50;97997.13;;;22.31
61977;BMP280;45905;50.570;10.428;2023-05-07T11:48:17;98000.00;;;22.34
61977;BMP280;45905;50.570;10.428;2023-05-07T11:50:53;97998.66;;;22.43
61977;BMP280;45905;50.570;10.428;2023-05-07T11:53:25;98000.44;;;22.54
61977;BMP280;45905;50.570;10.428;2023-05-07T11:55:56;97998.34;;;22.62
61977;BMP280;45905;50.570;10.428;2023-05-07T11:58:24;97999.00;;;22.69
61977;BMP280;45905;50.570;10.428;2023-05-07T12:00:55;97993.16;;;22.73
61977;BMP280;45905;50.570;10.428;2023-05-07T12:03:22;98007.16;;;22.77
61977;BMP280;45905;50.570;10.428;2023-05-07T12:05:49;97996.06;;;22.76
61977;BMP280;45905;50.570;10.428;2023-05-07T12:08:18;97993.25;;;22.78
61977;BMP280;45905;50.570;10.428;2023-05-07T12:10:48;97992.56;;;22.82
61977;BMP280;45905;50.570;10.428;2023-05-07T12:13:20;97999.41;;;22.88
61977;BMP280;45905;50.570;10.428;2023-05-07T12:15:56;97999.25;;;22.94
61977;BMP280;45905;50.570;10.428;2023-05-07T12:18:24;98000.63;;;22.97
61977;BMP280;45905;50.570;10.428;2023-05-07T12:20:52;98002.59;;;23.06
61977;BMP280;45905;50.570;10.428;2023-05-07T12:23:20;98003.72;;;23.10
61977;BMP280;45905;50.570;10.428;2023-05-07T12:25:47;98002.47;;;23.13
61977;BMP280;45905;50.570;10.428;2023-05-07T12:28:16;97993.69;;;23.13
61977;BMP280;45905;50.570;10.428;2023-05-07T12:30:47;97991.34;;;23.12
61977;BMP280;45905;50.570;10.428;2023-05-07T12:33:23;97996.84;;;23.15
61977;BMP280;45905;50.570;10.428;2023-05-07T12:35:50;97998.09;;;23.13
61977;BMP280;45905;50.570;10.428;2023-05-07T12:38:18;97992.13;;;23.13
61977;BMP280;45905;50.570;10.428;2023-05-07T12:40:48;97992.13;;;23.13
61977;BMP280;45905;50.570;10.428;2023-05-07T12:43:27;97994.25;;;23.15
61977;BMP280;45905;50.570;10.428;2023-05-07T12:45:57;97992.00;;;23.19
61977;BMP280;45905;50.570;10.428;2023-05-07T12:48:25;97978.53;;;23.17
61977;BMP280;45905;50.570;10.428;2023-05-07T12:50:59;97976.84;;;23.11
61977;BMP280;45905;50.570;10.428;2023-05-07T12:53:28;97985.50;;;23.16
61977;BMP280;45905;50.570;10.428;2023-05-07T12:55:58;97985.81;;;23.20
61977;BMP280;45905;50.570;10.428;2023-05-07T12:58:28;97981.53;;;23.25
61977;BMP280;45905;50.570;10.428;2023-05-07T13:00:59;97967.03;;;23.24
61977;BMP280;45905;50.570;10.428;2023-05-07T13:03:31;97986.28;;;23.28
61977;BMP280;45905;50.570;10.428;2023-05-07T13:06:05;97976.47;;;23.30
61977;BMP280;45905;50.570;10.428;2023-05-07T13:08:38;97966.31;;;23.40
61977;BMP280;45905;50.570;10.428;2023-05-07T13:11:09;97959.19;;;23.47
61977;BMP280;45905;50.570;10.428;2023-05-07T13:13:40;97963.28;;;23.59
61977;BMP280;45905;50.570;10.428;2023-05-07T13:16:10;97966.09;;;23.73
61977;BMP280;45905;50.570;10.428;2023-05-07T13:18:40;97971.28;;;23.90
61977;BMP280;45905;50.570;10.428;2023-05-07T13:21:08;97967.84;;;24.00
61977;BMP280;45905;50.570;10.428;2023-05-07T13:23:35;97955.94;;;23.99
61977;BMP280;45905;50.570;10.428;2023-05-07T13:26:06;97954.22;;;24.05
61977;BMP280;45905;50.570;10.428;2023-05-07T13:28:55;97955.00;;;24.05
61977;BMP280;45905;50.570;10.428;2023-05-07T13:31:23;97950.59;;;24.06
61977;BMP280;45905;50.570;10.428;2023-05-07T13:33:51;97947.38;;;23.99
61977;BMP280;45905;50.570;10.428;2023-05-07T13:36:19;97949.56;;;23.90
61977;BMP280;45905;50.570;10.428;2023-05-07T13:38:47;97957.94;;;23.81
61977;BMP280;45905;50.570;10.428;2023-05-07T13:41:14;97951.38;;;23.74
61977;BMP280;45905;50.570;10.428;2023-05-07T13:43:42;97944.88;;;23.72
61977;BMP280;45905;50.570;10.428;2023-05-07T13:46:09;97948.53;;;23.59
61977;BMP280;45905;50.570;10.428;2023-05-07T13:48:37;97942.66;;;23.48
61977;BMP280;45905;50.570;10.428;2023-05-07T13:51:04;97948.69;;;23.37
61977;BMP280;45905;50.570;10.428;2023-05-07T13:53:32;97946.91;;;23.26
61977;BMP280;45905;50.570;10.428;2023-05-07T13:56:00;97954.31;;;23.07
61977;BMP280;45905;50.570;10.428;2023-05-07T13:58:27;97948.19;;;22.85
61977;BMP280;45905;50.570;10.428;2023-05-07T14:00:55;97958.66;;;22.79
61977;BMP280;45905;50.570;10.428;2023-05-07T14:03:22;97953.72;;;22.77
61977;BMP280;45905;50.570;10.428;2023-05-07T14:05:49;97954.28;;;22.79
61977;BMP280;45905;50.570;10.428;2023-05-07T14:08:17;97952.13;;;22.88
61977;BMP280;45905;50.570;10.428;2023-05-07T14:10:47;97946.56;;;23.07
61977;BMP280;45905;50.570;10.428;2023-05-07T14:13:14;97950.09;;;23.28
61977;BMP280;45905;50.570;10.428;2023-05-07T14:15:42;97949.78;;;23.41
61977;BMP280;45905;50.570;10.428;2023-05-07T14:18:13;97952.28;;;23.36
61977;BMP280;45905;50.570;10.428;2023-05-07T14:20:41;97944.22;;;23.21
61977;BMP280;45905;50.570;10.428;2023-05-07T14:23:10;97955.34;;;23.33